sensor_id;sensor_type;location;lat;lon;timestamp;temperature;humidity
55036;DHT22;40936;53.008;6.556;2023-02-26T00:00:12;1.90;99.90
55036;DHT22;40936;53.008;6.556;2023-02-26T00:02:43;1.10;99.90
55036;DHT22;40936;53.008;6.556;2023-02-26T00:05:14;1.00;99.90
55036;DHT22;40936;53.008;6.556;2023-02-26T00:07:41;3.10;99.90
55036;DHT22;40936;53.008;6.556;2023-02-26T00:10:10;3.70;99.90
55036;DHT22;40936;53.008;6.556;2023-02-26T00:12:36;1.50;99.90
55036;DHT22;40936;53.008;6.556;2023-02-26T00:15:03;0.70;99.90
55036;DHT22;40936;53.008;6.556;2023-02-26T00:19:57;2.80;99.90
55036;DHT22;40936;53.008;6.556;2023-02-26T00:22:24;-0.30;99.90
55036;DHT22;40936;53.008;6.556;2023-02-26T00:24:50;2.90;99.90
55036;DHT22;40936;53.008;6.556;2023-02-26T00:27:15;1.10;99.90
55036;DHT22;40936;53.008;6.556;2023-02-26T00:29:41;0.80;99.90
55036;DHT22;40936;53.008;6.556;2023-02-26T00:32:07;2.80;99.90
55036;DHT22;40936;53.008;6.556;2023-02-26T00:34:33;0.90;99.90
55036;DHT22;40936;53.008;6.556;2023-02-26T00:42:14;1.80;99.90
55036;DHT22;40936;53.008;6.556;2023-02-26T00:44:41;1.00;99.90
55036;DHT22;40936;53.008;6.556;2023-02-26T00:47:17;3.10;99.90
55036;DHT22;40936;53.008;6.556;2023-02-26T00:55:09;0.80;99.90
55036;DHT22;40936;53.008;6.556;2023-02-26T00:57:35;3.80;99.90
55036;DHT22;40936;53.008;6.556;2023-02-26T01:00:01;2.20;99.90
55036;DHT22;40936;53.008;6.556;2023-02-26T01:02:27;3.50;99.90
55036;DHT22;40936;53.008;6.556;2023-02-26T01:04:53;1.40;99.90
55036;DHT22;40936;53.008;6.556;2023-02-26T01:07:22;0.60;99.90
55036;DHT22;40936;53.008;6.556;2023-02-26T01:09:51;1.50;99.90
55036;DHT22;40936;53.008;6.556;2023-02-26T01:12:16;0.70;99.90
55036;DHT22;40936;53.008;6.556;2023-02-26T01:14:43;0.70;99.90
55036;DHT22;40936;53.008;6.556;2023-02-26T01:20:00;3.30;99.90
55036;DHT22;40936;53.008;6.556;2023-02-26T01:25:20;1.10;99.90
55036;DHT22;40936;53.008;6.556;2023-02-26T01:30:14;0.30;99.90
55036;DHT22;40936;53.008;6.556;2023-02-26T01:32:57;0.70;99.90
55036;DHT22;40936;53.008;6.556;2023-02-26T01:35:47;2.70;99.90
55036;DHT22;40936;53.008;6.556;2023-02-26T01:43:59;0.40;99.90
55036;DHT22;40936;53.008;6.556;2023-02-26T01:48:56;1.70;99.90
55036;DHT22;40936;53.008;6.556;2023-02-26T01:54:07;2.10;99.90
55036;DHT22;40936;53.008;6.556;2023-02-26T01:56:32;-0.90;99.90
55036;DHT22;40936;53.008;6.556;2023-02-26T01:58:59;1.60;99.90
55036;DHT22;40936;53.008;6.556;2023-02-26T02:01:25;0.50;99.90
55036;DHT22;40936;53.008;6.556;2023-02-26T02:03:51;2.00;99.90
55036;DHT22;40936;53.008;6.556;2023-02-26T02:06:22;-0.20;99.90
55036;DHT22;40936;53.008;6.556;2023-02-26T02:08:49;2.30;99.90
55036;DHT22;40936;53.008;6.556;2023-02-26T02:14:11;0.70;99.90
55036;DHT22;40936;53.008;6.556;2023-02-26T02:16:47;-0.40;99.90
55036;DHT22;40936;53.008;6.556;2023-02-26T02:19:45;-0.90;99.90
55036;DHT22;40936;53.008;6.556;2023-02-26T02:28:14;0.50;99.90
55036;DHT22;40936;53.008;6.556;2023-02-26T02:33:59;-0.40;99.90
55036;DHT22;40936;53.008;6.556;2023-02-26T02:36:42;-0.50;99.90
55036;DHT22;40936;53.008;6.556;2023-02-26T02:39:15;0.60;99.90
55036;DHT22;40936;53.008;6.556;2023-02-26T02:41:56;-1.50;99.90
55036;DHT22;40936;53.008;6.556;2023-02-26T02:44:25;2.10;99.90
55036;DHT22;40936;53.008;6.556;2023-02-26T02:46:55;-0.60;99.90
55036;DHT22;40936;53.008;6.556;2023-02-26T02:49:35;-0.90;99.90
55036;DHT22;40936;53.008;6.556;2023-02-26T02:52:51;-0.40;99.90
55036;DHT22;40936;53.008;6.556;2023-02-26T02:55:00;-0.40;99.90
55036;DHT22;40936;53.008;6.556;2023-02-26T02:57:43;-1.30;99.90
55036;DHT22;40936;53.008;6.556;2023-02-26T03:00:12;-1.70;99.90
55036;DHT22;40936;53.008;6.556;2023-02-26T03:05:37;-0.50;99.90
55036;DHT22;40936;53.008;6.556;2023-02-26T03:08:09;-0.70;99.90
55036;DHT22;40936;53.008;6.556;2023-02-26T03:10:37;0.80;99.90
55036;DHT22;40936;53.008;6.556;2023-02-26T03:13:03;1.10;99.90
55036;DHT22;40936;53.008;6.556;2023-02-26T03:26:43;-0.90;99.90
55036;DHT22;40936;53.008;6.556;2023-02-26T03:31:55;-1.00;99.90
55036;DHT22;40936;53.008;6.556;2023-02-26T03:34:37;-0.10;99.90
55036;DHT22;40936;53.008;6.556;2023-02-26T03:37:16;-1.00;99.90
55036;DHT22;40936;53.008;6.556;2023-02-26T03:39:47;-1.40;99.90
55036;DHT22;40936;53.008;6.556;2023-02-26T03:42:19;-0.40;99.90
55036;DHT22;40936;53.008;6.556;2023-02-26T03:44:56;-1.10;99.90
55036;DHT22;40936;53.008;6.556;2023-02-26T03:47:23;-1.10;99.90
55036;DHT22;40936;53.008;6.556;2023-02-26T03:50:00;-1.00;99.90
55036;DHT22;40936;53.008;6.556;2023-02-26T03:52:29;-0.80;1.00
55036;DHT22;40936;53.008;6.556;2023-02-26T03:55:09;-1.10;99.90
55036;DHT22;40936;53.008;6.556;2023-02-26T03:57:37;2.40;1.00
55036;DHT22;40936;53.008;6.556;2023-02-26T04:00:04;1.60;99.90
55036;DHT22;40936;53.008;6.556;2023-02-26T04:02:47;-1.20;99.90
55036;DHT22;40936;53.008;6.556;2023-02-26T04:05:18;-1.90;1.00
55036;DHT22;40936;53.008;6.556;2023-02-26T04:07:46;-1.40;99.90
55036;DHT22;40936;53.008;6.556;2023-02-26T04:10:21;-1.30;99.90
55036;DHT22;40936;53.008;6.556;2023-02-26T04:15:15;-2.70;1.00
55036;DHT22;40936;53.008;6.556;2023-02-26T04:17:41;-2.20;1.00
55036;DHT22;40936;53.008;6.556;2023-02-26T04:20:07;-0.30;1.00
55036;DHT22;40936;53.008;6.556;2023-02-26T04:22:37;-2.30;1.00
55036;DHT22;40936;53.008;6.556;2023-02-26T04:25:03;-1.40;1.00
55036;DHT22;40936;53.008;6.556;2023-02-26T04:29:54;-1.30;99.90
55036;DHT22;40936;53.008;6.556;2023-02-26T04:37:12;-1.70;1.00
55036;DHT22;40936;53.008;6.556;2023-02-26T04:39:38;-1.20;1.00
55036;DHT22;40936;53.008;6.556;2023-02-26T04:42:04;-2.40;1.00
55036;DHT22;40936;53.008;6.556;2023-02-26T04:44:30;-1.50;99.90
55036;DHT22;40936;53.008;6.556;2023-02-26T04:46:56;0.30;1.00
55036;DHT22;40936;53.008;6.556;2023-02-26T04:49:22;-1.50;99.90
55036;DHT22;40936;53.008;6.556;2023-02-26T04:51:48;-2.20;1.00
55036;DHT22;40936;53.008;6.556;2023-02-26T04:56:40;-1.10;1.00
55036;DHT22;40936;53.008;6.556;2023-02-26T04:59:06;-0.30;1.00
55036;DHT22;40936;53.008;6.556;2023-02-26T05:01:32;0.80;1.00
55036;DHT22;40936;53.008;6.556;2023-02-26T05:03:58;-0.60;1.00
55036;DHT22;40936;53.008;6.556;2023-02-26T05:06:27;-1.30;1.00
55036;DHT22;40936;53.008;6.556;2023-02-26T05:08:53;-2.00;1.00
55036;DHT22;40936;53.008;6.556;2023-02-26T05:11:18;0.50;1.00
55036;DHT22;40936;53.008;6.556;2023-02-26T05:13:44;0.00;1.00
55036;DHT22;40936;53.008;6.556;2023-02-26T05:16:10;-1.60;1.00
55036;DHT22;40936;53.008;6.556;2023-02-26T05:18:36;0.40;1.00
55036;DHT22;40936;53.008;6.556;2023-02-26T05:21:02;-3.00;1.00
55036;DHT22;40936;53.008;6.556;2023-02-26T05:23:28;-1.50;1.00
55036;DHT22;40936;53.008;6.556;2023-02-26T05:25:55;1.00;1.00
55036;DHT22;40936;53.008;6.556;2023-02-26T05:28:21;-1.30;1.00
55036;DHT22;40936;53.008;6.556;2023-02-26T05:30:47;-1.70;1.00
55036;DHT22;40936;53.008;6.556;2023-02-26T05:33:13;-0.60;1.00
55036;DHT22;40936;53.008;6.556;2023-02-26T05:35:38;0.90;1.00
55036;DHT22;40936;53.008;6.556;2023-02-26T05:38:04;0.60;1.00
55036;DHT22;40936;53.008;6.556;2023-02-26T05:40:30;-3.00;1.00
55036;DHT22;40936;53.008;6.556;2023-02-26T05:42:56;1.00;1.00
55036;DHT22;40936;53.008;6.556;2023-02-26T05:45:21;-0.90;1.00
55036;DHT22;40936;53.008;6.556;2023-02-26T05:47:47;-2.10;1.00
55036;DHT22;40936;53.008;6.556;2023-02-26T05:50:13;-1.30;1.00
55036;DHT22;40936;53.008;6.556;2023-02-26T05:52:39;-2.70;1.00
55036;DHT22;40936;53.008;6.556;2023-02-26T05:55:05;-0.30;1.00
55036;DHT22;40936;53.008;6.556;2023-02-26T05:57:31;-2.40;1.00
55036;DHT22;40936;53.008;6.556;2023-02-26T06:02:23;-1.40;1.00
55036;DHT22;40936;53.008;6.556;2023-02-26T06:04:49;-1.80;1.00
55036;DHT22;40936;53.008;6.556;2023-02-26T06:07:14;-3.10;1.00
55036;DHT22;40936;53.008;6.556;2023-02-26T06:09:40;-2.60;1.00
55036;DHT22;40936;53.008;6.556;2023-02-26T06:12:06;-1.30;1.00
55036;DHT22;40936;53.008;6.556;2023-02-26T06:14:32;0.00;1.00
55036;DHT22;40936;53.008;6.556;2023-02-26T06:17:03;-0.70;1.00
55036;DHT22;40936;53.008;6.556;2023-02-26T06:19:28;-2.50;1.00
55036;DHT22;40936;53.008;6.556;2023-02-26T06:21:54;1.20;1.00
55036;DHT22;40936;53.008;6.556;2023-02-26T06:24:20;-1.50;1.00
55036;DHT22;40936;53.008;6.556;2023-02-26T06:26:45;-0.80;1.00
55036;DHT22;40936;53.008;6.556;2023-02-26T06:29:11;0.50;1.00
55036;DHT22;40936;53.008;6.556;2023-02-26T06:31:37;-3.50;1.00
55036;DHT22;40936;53.008;6.556;2023-02-26T06:34:03;1.30;1.00
55036;DHT22;40936;53.008;6.556;2023-02-26T06:36:29;-1.80;1.00
55036;DHT22;40936;53.008;6.556;2023-02-26T06:38:54;-2.90;1.00
55036;DHT22;40936;53.008;6.556;2023-02-26T06:41:20;-2.40;1.00
55036;DHT22;40936;53.008;6.556;2023-02-26T06:43:46;-0.70;1.00
55036;DHT22;40936;53.008;6.556;2023-02-26T06:46:11;-0.20;1.00
55036;DHT22;40936;53.008;6.556;2023-02-26T06:48:37;-2.40;1.00
55036;DHT22;40936;53.008;6.556;2023-02-26T06:51:03;-1.60;1.00
55036;DHT22;40936;53.008;6.556;2023-02-26T06:53:29;-1.70;1.00
55036;DHT22;40936;53.008;6.556;2023-02-26T06:58:21;-1.60;1.00
55036;DHT22;40936;53.008;6.556;2023-02-26T07:03:16;-1.50;1.00
55036;DHT22;40936;53.008;6.556;2023-02-26T07:05:44;-2.90;1.00
55036;DHT22;40936;53.008;6.556;2023-02-26T07:08:10;-0.20;1.00
55036;DHT22;40936;53.008;6.556;2023-02-26T07:10:36;-1.10;1.00
55036;DHT22;40936;53.008;6.556;2023-02-26T07:13:02;-1.70;1.00
55036;DHT22;40936;53.008;6.556;2023-02-26T07:15:30;0.90;1.00
55036;DHT22;40936;53.008;6.556;2023-02-26T07:17:56;-1.90;1.00
55036;DHT22;40936;53.008;6.556;2023-02-26T07:20:25;0.00;1.00
55036;DHT22;40936;53.008;6.556;2023-02-26T07:22:51;-0.40;1.00
55036;DHT22;40936;53.008;6.556;2023-02-26T07:25:17;-0.10;1.00
55036;DHT22;40936;53.008;6.556;2023-02-26T07:27:42;-1.90;1.00
55036;DHT22;40936;53.008;6.556;2023-02-26T07:30:09;0.70;1.00
55036;DHT22;40936;53.008;6.556;2023-02-26T07:32:35;-1.10;1.00
55036;DHT22;40936;53.008;6.556;2023-02-26T07:35:01;-2.90;1.00
55036;DHT22;40936;53.008;6.556;2023-02-26T07:37:26;0.90;1.00
55036;DHT22;40936;53.008;6.556;2023-02-26T07:42:22;-0.90;1.00
55036;DHT22;40936;53.008;6.556;2023-02-26T07:44:47;-0.30;1.00
55036;DHT22;40936;53.008;6.556;2023-02-26T07:52:06;0.20;1.00
55036;DHT22;40936;53.008;6.556;2023-02-26T07:54:36;0.20;1.00
55036;DHT22;40936;53.008;6.556;2023-02-26T07:57:02;-0.10;1.00
55036;DHT22;40936;53.008;6.556;2023-02-26T07:59:31;0.10;1.00
55036;DHT22;40936;53.008;6.556;2023-02-26T08:01:56;-1.00;1.00
55036;DHT22;40936;53.008;6.556;2023-02-26T08:04:22;-0.20;1.00
55036;DHT22;40936;53.008;6.556;2023-02-26T08:06:48;1.90;1.00
55036;DHT22;40936;53.008;6.556;2023-02-26T08:09:13;0.10;1.00
55036;DHT22;40936;53.008;6.556;2023-02-26T08:11:39;-0.90;1.00
55036;DHT22;40936;53.008;6.556;2023-02-26T08:14:07;-0.10;1.00
55036;DHT22;40936;53.008;6.556;2023-02-26T08:16:33;1.50;1.00
55036;DHT22;40936;53.008;6.556;2023-02-26T08:18:59;2.80;1.00
55036;DHT22;40936;53.008;6.556;2023-02-26T08:21:25;1.60;1.00
55036;DHT22;40936;53.008;6.556;2023-02-26T08:23:50;1.30;1.00
55036;DHT22;40936;53.008;6.556;2023-02-26T08:26:17;2.00;1.00
55036;DHT22;40936;53.008;6.556;2023-02-26T08:31:11;2.00;1.00
55036;DHT22;40936;53.008;6.556;2023-02-26T08:36:07;2.50;99.90
55036;DHT22;40936;53.008;6.556;2023-02-26T08:38:33;2.60;1.00
55036;DHT22;40936;53.008;6.556;2023-02-26T08:40:58;1.60;99.90
55036;DHT22;40936;53.008;6.556;2023-02-26T08:43:24;5.10;99.90
55036;DHT22;40936;53.008;6.556;2023-02-26T08:45:54;3.20;1.00
55036;DHT22;40936;53.008;6.556;2023-02-26T08:48:20;2.70;1.00
55036;DHT22;40936;53.008;6.556;2023-02-26T08:50:46;3.30;99.90
55036;DHT22;40936;53.008;6.556;2023-02-26T08:53:12;4.80;99.90
55036;DHT22;40936;53.008;6.556;2023-02-26T08:55:38;1.90;99.90
55036;DHT22;40936;53.008;6.556;2023-02-26T08:58:04;5.90;99.90
55036;DHT22;40936;53.008;6.556;2023-02-26T09:00:30;7.20;99.90
55036;DHT22;40936;53.008;6.556;2023-02-26T09:02:56;10.70;99.90
55036;DHT22;40936;53.008;6.556;2023-02-26T09:05:22;10.30;99.90
55036;DHT22;40936;53.008;6.556;2023-02-26T09:10:15;13.50;99.90
55036;DHT22;40936;53.008;6.556;2023-02-26T09:12:41;14.00;99.90
55036;DHT22;40936;53.008;6.556;2023-02-26T09:15:08;15.10;99.90
55036;DHT22;40936;53.008;6.556;2023-02-26T09:17:35;15.90;99.90
55036;DHT22;40936;53.008;6.556;2023-02-26T09:20:01;16.40;99.90
55036;DHT22;40936;53.008;6.556;2023-02-26T09:22:26;17.00;99.90
55036;DHT22;40936;53.008;6.556;2023-02-26T09:24:52;17.10;99.90
55036;DHT22;40936;53.008;6.556;2023-02-26T09:27:18;17.50;99.90
55036;DHT22;40936;53.008;6.556;2023-02-26T09:29:43;17.60;99.90
55036;DHT22;40936;53.008;6.556;2023-02-26T09:34:36;17.80;99.90
55036;DHT22;40936;53.008;6.556;2023-02-26T09:37:04;18.10;97.00
55036;DHT22;40936;53.008;6.556;2023-02-26T09:39:30;18.10;99.90
55036;DHT22;40936;53.008;6.556;2023-02-26T09:41:59;18.40;99.90
55036;DHT22;40936;53.008;6.556;2023-02-26T09:44:30;18.60;92.50
55036;DHT22;40936;53.008;6.556;2023-02-26T09:47:20;18.90;93.80
55036;DHT22;40936;53.008;6.556;2023-02-26T09:50:02;19.10;75.40
55036;DHT22;40936;53.008;6.556;2023-02-26T09:52:49;19.20;67.00
55036;DHT22;40936;53.008;6.556;2023-02-26T09:55:26;19.00;51.40
55036;DHT22;40936;53.008;6.556;2023-02-26T09:57:59;17.80;53.70
55036;DHT22;40936;53.008;6.556;2023-02-26T10:00:36;15.80;63.00
55036;DHT22;40936;53.008;6.556;2023-02-26T10:06:06;12.80;82.90
55036;DHT22;40936;53.008;6.556;2023-02-26T10:08:44;11.80;93.20
55036;DHT22;40936;53.008;6.556;2023-02-26T10:11:16;10.90;97.70
55036;DHT22;40936;53.008;6.556;2023-02-26T10:13:47;10.30;99.90
55036;DHT22;40936;53.008;6.556;2023-02-26T10:16:18;9.80;99.90
55036;DHT22;40936;53.008;6.556;2023-02-26T10:18:54;9.80;99.90
55036;DHT22;40936;53.008;6.556;2023-02-26T10:24:30;9.10;99.90
55036;DHT22;40936;53.008;6.556;2023-02-26T10:27:06;9.00;99.90
55036;DHT22;40936;53.008;6.556;2023-02-26T10:29:43;8.90;99.90
55036;DHT22;40936;53.008;6.556;2023-02-26T10:32:36;8.80;99.90
55036;DHT22;40936;53.008;6.556;2023-02-26T10:35:09;7.50;99.90
55036;DHT22;40936;53.008;6.556;2023-02-26T10:38:00;8.80;99.90
55036;DHT22;40936;53.008;6.556;2023-02-26T10:50:56;9.20;99.90
55036;DHT22;40936;53.008;6.556;2023-02-26T10:53:23;9.10;99.90
55036;DHT22;40936;53.008;6.556;2023-02-26T10:56:06;8.70;99.90
55036;DHT22;40936;53.008;6.556;2023-02-26T10:58:33;8.60;99.90
55036;DHT22;40936;53.008;6.556;2023-02-26T11:03:40;8.40;99.90
55036;DHT22;40936;53.008;6.556;2023-02-26T11:06:07;8.90;99.90
55036;DHT22;40936;53.008;6.556;2023-02-26T11:08:46;8.40;99.90
55036;DHT22;40936;53.008;6.556;2023-02-26T11:11:33;8.40;99.90
55036;DHT22;40936;53.008;6.556;2023-02-26T11:13:58;10.00;99.90
55036;DHT22;40936;53.008;6.556;2023-02-26T11:16:24;8.80;99.90
55036;DHT22;40936;53.008;6.556;2023-02-26T11:18:53;9.30;99.90
55036;DHT22;40936;53.008;6.556;2023-02-26T11:21:28;9.00;99.90
55036;DHT22;40936;53.008;6.556;2023-02-26T11:24:03;7.20;99.90
55036;DHT22;40936;53.008;6.556;2023-02-26T11:26:34;9.10;99.90
55036;DHT22;40936;53.008;6.556;2023-02-26T11:31:27;8.40;99.90
55036;DHT22;40936;53.008;6.556;2023-02-26T11:33:58;9.10;99.90
55036;DHT22;40936;53.008;6.556;2023-02-26T11:36:28;9.30;99.90
55036;DHT22;40936;53.008;6.556;2023-02-26T11:39:13;9.50;99.90
55036;DHT22;40936;53.008;6.556;2023-02-26T11:41:40;9.80;99.90
55036;DHT22;40936;53.008;6.556;2023-02-26T11:44:16;7.30;99.90
55036;DHT22;40936;53.008;6.556;2023-02-26T11:46:54;9.50;99.90
55036;DHT22;40936;53.008;6.556;2023-02-26T11:49:23;8.40;99.90
55036;DHT22;40936;53.008;6.556;2023-02-26T11:52:29;8.50;99.90
55036;DHT22;40936;53.008;6.556;2023-02-26T11:55:02;8.40;99.90
55036;DHT22;40936;53.008;6.556;2023-02-26T11:57:29;8.50;99.90
55036;DHT22;40936;53.008;6.556;2023-02-26T11:59:58;8.60;99.90
55036;DHT22;40936;53.008;6.556;2023-02-26T12:02:26;8.60;99.90
55036;DHT22;40936;53.008;6.556;2023-02-26T12:04:57;8.50;99.90
55036;DHT22;40936;53.008;6.556;2023-02-26T12:07:25;8.50;99.90
55036;DHT22;40936;53.008;6.556;2023-02-26T12:09:53;8.30;99.90
55036;DHT22;40936;53.008;6.556;2023-02-26T12:18:09;6.80;99.90
55036;DHT22;40936;53.008;6.556;2023-02-26T12:20:52;8.40;99.90
55036;DHT22;40936;53.008;6.556;2023-02-26T12:28:51;9.30;99.90
55036;DHT22;40936;53.008;6.556;2023-02-26T12:31:36;9.40;99.90
55036;DHT22;40936;53.008;6.556;2023-02-26T12:34:37;9.40;99.90
55036;DHT22;40936;53.008;6.556;2023-02-26T12:45:42;8.80;99.90
55036;DHT22;40936;53.008;6.556;2023-02-26T12:51:34;8.50;99.90
55036;DHT22;40936;53.008;6.556;2023-02-26T12:54:32;9.20;99.90
55036;DHT22;40936;53.008;6.556;2023-02-26T12:57:22;8.40;99.90
55036;DHT22;40936;53.008;6.556;2023-02-26T13:06:13;8.50;99.90
55036;DHT22;40936;53.008;6.556;2023-02-26T13:20:16;8.30;99.90
55036;DHT22;40936;53.008;6.556;2023-02-26T13:22:46;8.40;99.90
55036;DHT22;40936;53.008;6.556;2023-02-26T13:28:01;8.80;99.90
55036;DHT22;40936;53.008;6.556;2023-02-26T13:30:35;7.90;99.90
55036;DHT22;40936;53.008;6.556;2023-02-26T13:33:03;9.00;99.90
55036;DHT22;40936;53.008;6.556;2023-02-26T13:35:33;8.30;99.90
55036;DHT22;40936;53.008;6.556;2023-02-26T13:38:01;8.10;99.90
55036;DHT22;40936;53.008;6.556;2023-02-26T13:46:04;7.90;99.90
55036;DHT22;40936;53.008;6.556;2023-02-26T13:51:49;9.60;99.90
55036;DHT22;40936;53.008;6.556;2023-02-26T13:57:04;8.10;99.90
55036;DHT22;40936;53.008;6.556;2023-02-26T14:04:58;7.90;99.90
55036;DHT22;40936;53.008;6.556;2023-02-26T14:10:24;7.80;99.90
55036;DHT22;40936;53.008;6.556;2023-02-26T14:13:10;8.20;99.90
55036;DHT22;40936;53.008;6.556;2023-02-26T14:15:41;9.60;99.90
55036;DHT22;40936;53.008;6.556;2023-02-26T14:18:32;8.20;99.90
55036;DHT22;40936;53.008;6.556;2023-02-26T14:24:56;7.10;99.90
55036;DHT22;40936;53.008;6.556;2023-02-26T14:27:40;7.60;99.90
55036;DHT22;40936;53.008;6.556;2023-02-26T14:35:30;6.40;99.90
55036;DHT22;40936;53.008;6.556;2023-02-26T14:38:26;7.60;99.90
55036;DHT22;40936;53.008;6.556;2023-02-26T14:41:11;7.80;99.90
55036;DHT22;40936;53.008;6.556;2023-02-26T14:43:49;8.80;99.90
55036;DHT22;40936;53.008;6.556;2023-02-26T14:46:18;7.00;99.90
55036;DHT22;40936;53.008;6.556;2023-02-26T14:48:45;5.90;99.90
55036;DHT22;40936;53.008;6.556;2023-02-26T15:15:37;5.00;99.90
55036;DHT22;40936;53.008;6.556;2023-02-26T15:23:42;6.10;99.90
55036;DHT22;40936;53.008;6.556;2023-02-26T15:26:20;9.70;99.90
55036;DHT22;40936;53.008;6.556;2023-02-26T15:28:48;6.20;99.90
55036;DHT22;40936;53.008;6.556;2023-02-26T15:31:16;6.20;99.90
55036;DHT22;40936;53.008;6.556;2023-02-26T15:33:42;8.10;99.90
55036;DHT22;40936;53.008;6.556;2023-02-26T15:36:16;6.30;99.90
55036;DHT22;40936;53.008;6.556;2023-02-26T15:38:56;7.10;99.90
55036;DHT22;40936;53.008;6.556;2023-02-26T15:41:25;7.70;99.90
55036;DHT22;40936;53.008;6.556;2023-02-26T15:43:55;7.50;99.90
55036;DHT22;40936;53.008;6.556;2023-02-26T15:46:35;5.90;99.90
55036;DHT22;40936;53.008;6.556;2023-02-26T15:49:33;5.90;99.90
55036;DHT22;40936;53.008;6.556;2023-02-26T15:51:55;5.80;99.90
55036;DHT22;40936;53.008;6.556;2023-02-26T15:54:24;5.60;99.90
55036;DHT22;40936;53.008;6.556;2023-02-26T15:56:52;5.50;99.90
55036;DHT22;40936;53.008;6.556;2023-02-26T15:59:21;5.50;99.90
55036;DHT22;40936;53.008;6.556;2023-02-26T16:01:49;4.80;99.90
55036;DHT22;40936;53.008;6.556;2023-02-26T16:04:18;8.00;99.90
55036;DHT22;40936;53.008;6.556;2023-02-26T16:06:46;5.90;99.90
55036;DHT22;40936;53.008;6.556;2023-02-26T16:09:26;5.50;99.90
55036;DHT22;40936;53.008;6.556;2023-02-26T16:11:55;6.40;99.90
55036;DHT22;40936;53.008;6.556;2023-02-26T16:14:25;6.40;99.90
55036;DHT22;40936;53.008;6.556;2023-02-26T16:16:53;5.80;99.90
55036;DHT22;40936;53.008;6.556;2023-02-26T16:19:33;5.50;99.90
55036;DHT22;40936;53.008;6.556;2023-02-26T16:22:04;5.80;99.90
55036;DHT22;40936;53.008;6.556;2023-02-26T16:24:32;4.70;99.90
55036;DHT22;40936;53.008;6.556;2023-02-26T16:27:02;5.80;99.90
55036;DHT22;40936;53.008;6.556;2023-02-26T16:29:32;5.80;99.90
55036;DHT22;40936;53.008;6.556;2023-02-26T16:32:01;5.70;99.90
55036;DHT22;40936;53.008;6.556;2023-02-26T16:45:19;5.70;99.90
55036;DHT22;40936;53.008;6.556;2023-02-26T16:47:52;5.60;99.90
55036;DHT22;40936;53.008;6.556;2023-02-26T16:50:30;5.20;99.90
55036;DHT22;40936;53.008;6.556;2023-02-26T16:53:15;5.70;99.90
55036;DHT22;40936;53.008;6.556;2023-02-26T16:55:46;5.60;99.90
55036;DHT22;40936;53.008;6.556;2023-02-26T16:58:15;5.40;99.90
55036;DHT22;40936;53.008;6.556;2023-02-26T17:00:44;3.20;99.90
55036;DHT22;40936;53.008;6.556;2023-02-26T17:03:16;5.60;99.90
55036;DHT22;40936;53.008;6.556;2023-02-26T17:05:54;5.50;99.90
55036;DHT22;40936;53.008;6.556;2023-02-26T17:08:26;5.10;99.90
55036;DHT22;40936;53.008;6.556;2023-02-26T17:11:05;5.40;99.90
55036;DHT22;40936;53.008;6.556;2023-02-26T17:13:33;5.30;99.90
55036;DHT22;40936;53.008;6.556;2023-02-26T17:16:02;5.20;99.90
55036;DHT22;40936;53.008;6.556;2023-02-26T17:18:28;5.50;99.90
55036;DHT22;40936;53.008;6.556;2023-02-26T17:20:55;5.10;99.90
55036;DHT22;40936;53.008;6.556;2023-02-26T17:23:22;4.70;99.90
55036;DHT22;40936;53.008;6.556;2023-02-26T17:25:51;6.50;99.90
55036;DHT22;40936;53.008;6.556;2023-02-26T17:28:26;3.40;99.90
55036;DHT22;40936;53.008;6.556;2023-02-26T17:30:52;4.00;99.90
55036;DHT22;40936;53.008;6.556;2023-02-26T17:33:18;4.20;99.90
55036;DHT22;40936;53.008;6.556;2023-02-26T17:35:45;3.90;99.90
55036;DHT22;40936;53.008;6.556;2023-02-26T17:38:11;4.40;99.90
55036;DHT22;40936;53.008;6.556;2023-02-26T17:40:39;4.50;99.90
55036;DHT22;40936;53.008;6.556;2023-02-26T17:43:05;4.00;99.90
55036;DHT22;40936;53.008;6.556;2023-02-26T17:45:33;4.40;99.90
55036;DHT22;40936;53.008;6.556;2023-02-26T17:52:56;4.30;99.90
55036;DHT22;40936;53.008;6.556;2023-02-26T17:57:48;4.40;99.90
55036;DHT22;40936;53.008;6.556;2023-02-26T18:00:15;3.80;99.90
55036;DHT22;40936;53.008;6.556;2023-02-26T18:02:41;3.80;99.90
55036;DHT22;40936;53.008;6.556;2023-02-26T18:05:08;4.70;99.90
55036;DHT22;40936;53.008;6.556;2023-02-26T18:07:34;3.80;99.90
55036;DHT22;40936;53.008;6.556;2023-02-26T18:09:59;3.60;99.90
55036;DHT22;40936;53.008;6.556;2023-02-26T18:12:25;4.70;99.90
55036;DHT22;40936;53.008;6.556;2023-02-26T18:14:51;4.70;99.90
55036;DHT22;40936;53.008;6.556;2023-02-26T18:17:23;3.70;99.90
55036;DHT22;40936;53.008;6.556;2023-02-26T18:19:49;1.50;99.90
55036;DHT22;40936;53.008;6.556;2023-02-26T18:22:16;2.70;99.90
55036;DHT22;40936;53.008;6.556;2023-02-26T18:24:43;5.40;99.90
55036;DHT22;40936;53.008;6.556;2023-02-26T18:27:17;1.70;99.90
55036;DHT22;40936;53.008;6.556;2023-02-26T18:29:44;4.50;99.90
55036;DHT22;40936;53.008;6.556;2023-02-26T18:32:18;2.00;99.90
55036;DHT22;40936;53.008;6.556;2023-02-26T18:34:43;4.80;99.90
55036;DHT22;40936;53.008;6.556;2023-02-26T18:37:18;5.60;99.90
55036;DHT22;40936;53.008;6.556;2023-02-26T18:39:44;2.80;99.90
55036;DHT22;40936;53.008;6.556;2023-02-26T18:42:23;2.60;99.90
55036;DHT22;40936;53.008;6.556;2023-02-26T18:44:49;3.10;99.90
55036;DHT22;40936;53.008;6.556;2023-02-26T18:47:16;3.30;99.90
55036;DHT22;40936;53.008;6.556;2023-02-26T18:49:42;2.30;99.90
55036;DHT22;40936;53.008;6.556;2023-02-26T18:52:08;1.10;99.90
55036;DHT22;40936;53.008;6.556;2023-02-26T18:57:01;2.30;99.90
55036;DHT22;40936;53.008;6.556;2023-02-26T18:59:27;2.20;99.90
55036;DHT22;40936;53.008;6.556;2023-02-26T19:01:53;2.10;99.90
55036;DHT22;40936;53.008;6.556;2023-02-26T19:04:19;2.10;99.90
55036;DHT22;40936;53.008;6.556;2023-02-26T19:06:45;3.10;99.90
55036;DHT22;40936;53.008;6.556;2023-02-26T19:09:10;2.50;99.90
55036;DHT22;40936;53.008;6.556;2023-02-26T19:11:36;3.90;99.90
55036;DHT22;40936;53.008;6.556;2023-02-26T19:14:03;1.90;99.90
55036;DHT22;40936;53.008;6.556;2023-02-26T19:16:29;1.70;99.90
55036;DHT22;40936;53.008;6.556;2023-02-26T19:19:00;3.20;99.90
55036;DHT22;40936;53.008;6.556;2023-02-26T19:21:26;3.10;99.90
55036;DHT22;40936;53.008;6.556;2023-02-26T19:28:47;3.60;99.90
55036;DHT22;40936;53.008;6.556;2023-02-26T19:31:13;0.40;99.90
55036;DHT22;40936;53.008;6.556;2023-02-26T19:33:38;1.50;99.90
55036;DHT22;40936;53.008;6.556;2023-02-26T19:36:04;2.00;99.90
55036;DHT22;40936;53.008;6.556;2023-02-26T19:38:30;1.30;99.90
55036;DHT22;40936;53.008;6.556;2023-02-26T19:40:56;1.00;99.90
55036;DHT22;40936;53.008;6.556;2023-02-26T19:43:23;1.30;99.90
55036;DHT22;40936;53.008;6.556;2023-02-26T19:45:49;0.10;99.90
55036;DHT22;40936;53.008;6.556;2023-02-26T19:48:15;1.70;99.90
55036;DHT22;40936;53.008;6.556;2023-02-26T19:50:40;3.10;99.90
55036;DHT22;40936;53.008;6.556;2023-02-26T19:53:06;2.50;99.90
55036;DHT22;40936;53.008;6.556;2023-02-26T19:55:32;0.70;99.90
55036;DHT22;40936;53.008;6.556;2023-02-26T19:57:58;2.90;99.90
55036;DHT22;40936;53.008;6.556;2023-02-26T20:00:23;0.70;99.90
55036;DHT22;40936;53.008;6.556;2023-02-26T20:02:49;0.60;99.90
55036;DHT22;40936;53.008;6.556;2023-02-26T20:05:15;0.20;99.90
55036;DHT22;40936;53.008;6.556;2023-02-26T20:07:43;1.20;99.90